createdAt,value
2018-11-29T00:02:55.014Z,23.90
2018-11-29T00:05:54.656Z,23.90
2018-11-29T00:08:50.902Z,23.90
2018-11-29T00:11:47.320Z,23.90
2018-11-29T00:14:43.752Z,23.90
2018-11-29T00:17:40.558Z,23.90
2018-11-29T00:20:37.698Z,23.90
2018-11-29T00:23:34.010Z,23.90
2018-11-29T00:26:30.422Z,23.90
2018-11-29T00:29:26.322Z,23.80
2018-11-29T00:32:22.547Z,23.90
2018-11-29T00:35:19.536Z,23.90
2018-11-29T00:38:15.944Z,23.80
2018-11-29T00:41:12.217Z,23.80
2018-11-29T00:44:08.380Z,23.70
2018-11-29T00:47:04.714Z,23.70
2018-11-29T00:50:01.768Z,23.60
2018-11-29T00:53:10.966Z,23.60
2018-11-29T00:56:07.193Z,23.60
2018-11-29T00:59:03.758Z,23.60
2018-11-29T01:02:06.547Z,23.60
2018-11-29T01:05:03.293Z,23.60
2018-11-29T01:07:59.222Z,23.60
2018-11-29T01:10:57.919Z,23.60
2018-11-29T01:13:57.278Z,23.60
2018-11-29T01:16:56.731Z,23.60
2018-11-29T01:19:52.959Z,23.60
2018-11-29T01:22:49.060Z,23.60
2018-11-29T01:25:44.605Z,23.60
2018-11-29T01:28:41.143Z,23.60
2018-11-29T01:31:37.268Z,23.60
2018-11-29T01:34:32.919Z,23.60
2018-11-29T01:37:29.151Z,23.60
2018-11-29T01:40:28.422Z,23.60
2018-11-29T01:43:24.034Z,23.60
2018-11-29T01:46:20.074Z,23.60
2018-11-29T01:49:16.283Z,23.60
2018-11-29T01:52:12.718Z,23.60
2018-11-29T01:55:08.558Z,23.60
2018-11-29T01:58:05.201Z,23.60
2018-11-29T02:01:01.737Z,23.60
2018-11-29T02:04:00.841Z,23.60
2018-11-29T02:06:56.965Z,23.60
2018-11-29T02:09:53.919Z,23.60
2018-11-29T02:12:50.442Z,23.60
2018-11-29T02:15:49.663Z,23.60
2018-11-29T02:18:46.427Z,23.50
2018-11-29T02:22:04.641Z,23.50
2018-11-29T02:24:50.849Z,23.60
2018-11-29T02:27:46.750Z,23.60
2018-11-29T02:30:43.521Z,23.60
2018-11-29T02:33:40.670Z,23.60
2018-11-29T02:36:37.002Z,23.60
2018-11-29T02:39:35.996Z,23.60
2018-11-29T02:42:32.540Z,23.60
2018-11-29T02:45:29.480Z,23.60
2018-11-29T02:48:25.568Z,23.60
2018-11-29T02:51:24.297Z,23.70
2018-11-29T02:54:20.222Z,23.60
2018-11-29T02:57:16.767Z,23.70
2018-11-29T03:00:18.544Z,23.60
2018-11-29T03:03:20.374Z,23.70
2018-11-29T03:06:17.106Z,23.70
2018-11-29T03:09:17.616Z,23.70
2018-11-29T03:12:10.655Z,23.70
2018-11-29T03:15:10.226Z,23.70
2018-11-29T03:18:06.601Z,23.70
2018-11-29T03:21:03.562Z,23.70
2018-11-29T03:23:59.815Z,23.70
2018-11-29T03:26:56.512Z,23.80
2018-11-29T03:29:52.997Z,23.70
2018-11-29T03:32:49.522Z,23.70
2018-11-29T03:35:45.712Z,23.70
2018-11-29T03:38:42.512Z,23.70
2018-11-29T03:41:39.195Z,23.80
2018-11-29T03:44:35.587Z,23.80
2018-11-29T03:47:32.054Z,23.80
2018-11-29T03:50:28.194Z,23.80
2018-11-29T03:53:24.871Z,23.80
2018-11-29T03:56:20.977Z,23.80
2018-11-29T03:59:17.413Z,23.80
2018-11-29T04:02:13.626Z,23.80
2018-11-29T04:05:10.644Z,23.90
2018-11-29T04:08:09.975Z,23.90
2018-11-29T04:11:06.157Z,24.00
2018-11-29T04:14:05.727Z,24.00
2018-11-29T04:17:02.226Z,24.00
2018-11-29T04:19:59.020Z,24.10
2018-11-29T04:22:55.080Z,24.10
2018-11-29T04:25:51.178Z,24.10
2018-11-29T04:28:47.750Z,24.10
2018-11-29T04:31:45.328Z,24.10
2018-11-29T04:34:41.728Z,24.20
2018-11-29T04:37:38.444Z,24.20
2018-11-29T04:40:37.955Z,24.20
2018-11-29T04:43:36.678Z,24.10
2018-11-29T04:46:54.780Z,24.10
2018-11-29T04:49:51.290Z,24.20
2018-11-29T04:52:47.619Z,24.20
2018-11-29T04:55:43.885Z,24.10
2018-11-29T04:58:40.185Z,24.10
2018-11-29T05:01:41.662Z,24.20
2018-11-29T05:04:40.134Z,24.20
2018-11-29T05:07:40.438Z,24.20
2018-11-29T05:10:36.395Z,24.20
2018-11-29T05:13:32.684Z,24.20
2018-11-29T05:16:43.356Z,24.20
2018-11-29T05:19:44.573Z,24.20
2018-11-29T05:22:53.274Z,24.20
2018-11-29T05:25:52.932Z,24.20
2018-11-29T05:28:49.544Z,24.20
2018-11-29T05:31:45.616Z,24.10
2018-11-29T05:34:42.522Z,24.20
2018-11-29T05:37:42.461Z,24.20
2018-11-29T05:40:42.298Z,24.20
2018-11-29T05:43:53.169Z,24.20
2018-11-29T05:46:50.285Z,24.20
2018-11-29T05:49:46.931Z,24.20
2018-11-29T05:52:43.883Z,24.20
2018-11-29T05:55:41.445Z,24.20
2018-11-29T05:58:46.539Z,24.20
2018-11-29T06:01:49.011Z,24.30
2018-11-29T06:04:49.080Z,24.30
2018-11-29T06:07:51.844Z,24.40
2018-11-29T06:10:55.383Z,24.40
2018-11-29T06:13:51.684Z,24.40
2018-11-29T06:16:47.918Z,24.50
2018-11-29T06:19:44.455Z,24.50
2018-11-29T06:22:47.578Z,24.50
2018-11-29T06:25:58.167Z,24.50
2018-11-29T06:28:59.860Z,24.50
2018-11-29T06:32:03.865Z,24.50
2018-11-29T06:35:00.256Z,24.60
2018-11-29T06:38:01.854Z,24.60
2018-11-29T06:40:59.357Z,24.60
2018-11-29T06:43:56.573Z,24.60
2018-11-29T06:46:52.628Z,24.60
2018-11-29T06:49:53.885Z,24.60
2018-11-29T06:52:51.139Z,24.60
2018-11-29T06:55:48.252Z,24.70
2018-11-29T06:58:44.701Z,24.60
2018-11-29T07:01:41.365Z,24.60
2018-11-29T07:04:38.617Z,24.60
2018-11-29T07:07:35.976Z,24.70
2018-11-29T07:10:55.072Z,24.70
2018-11-29T07:13:47.936Z,24.70
2018-11-29T07:16:42.398Z,24.70
2018-11-29T07:19:45.706Z,24.70
2018-11-29T07:22:44.957Z,24.70
2018-11-29T07:25:44.376Z,24.70
2018-11-29T07:28:41.262Z,24.70
2018-11-29T07:31:39.529Z,24.70
2018-11-29T07:34:53.084Z,24.60
2018-11-29T07:37:49.392Z,24.60
2018-11-29T07:40:56.647Z,24.60
2018-11-29T07:43:51.930Z,24.60
2018-11-29T07:47:06.217Z,24.60
2018-11-29T07:50:11.818Z,24.60
2018-11-29T07:53:05.216Z,24.60
2018-11-29T07:56:05.418Z,24.60
2018-11-29T07:59:06.761Z,24.60
2018-11-29T08:02:04.170Z,24.60
2018-11-29T08:05:01.932Z,24.60
2018-11-29T08:07:59.383Z,24.60
2018-11-29T08:11:00.864Z,24.60
2018-11-29T08:13:59.622Z,24.70
2018-11-29T08:16:56.621Z,24.60
2018-11-29T08:20:00.381Z,24.70
2018-11-29T08:22:58.070Z,24.60
2018-11-29T08:25:54.810Z,24.60
2018-11-29T08:29:03.260Z,24.70
2018-11-29T08:31:53.176Z,24.70
2018-11-29T08:34:49.476Z,24.80
2018-11-29T08:37:49.001Z,24.80
2018-11-29T08:40:49.225Z,24.80
2018-11-29T08:43:50.179Z,24.90
2018-11-29T08:46:47.008Z,24.90
2018-11-29T08:49:43.541Z,24.90
2018-11-29T08:52:58.928Z,24.90
2018-11-29T08:58:59.382Z,24.90
2018-11-29T09:01:57.499Z,25.00
2018-11-29T09:04:55.301Z,25.00
2018-11-29T09:08:05.667Z,25.00
2018-11-29T09:11:00.393Z,25.00
2018-11-29T09:14:03.958Z,25.00
2018-11-29T09:20:55.503Z,25.00
2018-11-29T09:23:59.619Z,24.90
2018-11-29T09:27:10.166Z,24.90
2018-11-29T09:37:55.062Z,24.90
2018-11-29T09:40:56.299Z,24.90
2018-11-29T09:43:54.675Z,24.80
2018-11-29T09:46:52.241Z,24.80
2018-11-29T09:49:56.670Z,24.80
2018-11-29T09:52:54.368Z,24.70
2018-11-29T09:55:52.375Z,24.70
2018-11-29T09:58:51.799Z,24.70
2018-11-29T10:01:49.684Z,24.70
2018-11-29T10:04:47.372Z,24.60
2018-11-29T10:07:45.798Z,24.60
2018-11-29T10:10:43.976Z,24.70
2018-11-29T10:13:46.373Z,24.60
2018-11-29T10:16:42.917Z,24.60
2018-11-29T10:19:42.996Z,24.60
2018-11-29T10:22:40.513Z,24.60
2018-11-29T10:25:37.618Z,24.60
2018-11-29T10:28:43.789Z,24.60
2018-11-29T10:31:41.688Z,24.60
2018-11-29T10:34:40.156Z,24.60
2018-11-29T10:37:37.780Z,24.60
2018-11-29T10:40:36.440Z,24.50
2018-11-29T10:43:34.791Z,24.50
2018-11-29T10:46:37.387Z,24.50
2018-11-29T10:49:35.094Z,24.50
2018-11-29T10:52:33.954Z,24.50
2018-11-29T10:55:32.119Z,24.50
2018-11-29T10:58:29.574Z,24.50
2018-11-29T11:01:48.753Z,24.50
2018-11-29T11:04:46.352Z,24.50
2018-11-29T11:07:44.339Z,24.50
2018-11-29T11:10:41.885Z,24.50
2018-11-29T11:13:39.646Z,24.50
2018-11-29T11:16:36.719Z,24.40
2018-11-29T11:19:34.110Z,24.40
2018-11-29T11:22:39.205Z,24.40
2018-11-29T11:25:37.490Z,24.50
2018-11-29T11:28:39.117Z,24.40
2018-11-29T11:31:37.221Z,24.40
2018-11-29T11:34:37.100Z,24.40
2018-11-29T11:37:44.979Z,24.40
2018-11-29T11:40:43.052Z,24.40
2018-11-29T11:43:40.911Z,24.40
2018-11-29T11:46:38.010Z,24.40
2018-11-29T11:49:35.356Z,24.40
2018-11-29T11:52:34.929Z,24.40
2018-11-29T11:55:32.208Z,24.50
2018-11-29T11:58:32.648Z,24.50
2018-11-29T12:01:33.585Z,24.50
2018-11-29T12:04:31.043Z,24.50
2018-11-29T12:07:28.929Z,24.50
2018-11-29T12:10:26.289Z,24.50
2018-11-29T12:13:23.608Z,24.50
2018-11-29T12:16:21.330Z,24.60
2018-11-29T12:19:19.681Z,24.50
2018-11-29T12:22:17.146Z,24.50
2018-11-29T12:25:22.496Z,24.60
2018-11-29T12:28:22.669Z,24.60
2018-11-29T12:31:20.494Z,24.60
2018-11-29T12:34:17.828Z,24.60
2018-11-29T12:37:15.903Z,24.60
2018-11-29T12:40:23.537Z,24.60
2018-11-29T12:43:24.516Z,24.60
2018-11-29T12:46:22.245Z,24.60
2018-11-29T12:49:19.635Z,24.60
2018-11-29T12:52:17.282Z,24.60
2018-11-29T12:55:15.568Z,24.60
2018-11-29T12:58:12.971Z,24.60
2018-11-29T13:01:10.759Z,24.60
2018-11-29T13:04:11.091Z,24.60
2018-11-29T13:07:11.739Z,24.60
2018-11-29T13:10:13.385Z,24.50
2018-11-29T13:13:12.088Z,24.50
2018-11-29T13:16:12.393Z,24.50
2018-11-29T13:19:09.800Z,24.50
2018-11-29T13:22:06.707Z,24.50
2018-11-29T13:25:03.730Z,24.50
2018-11-29T13:28:03.662Z,24.50
2018-11-29T13:31:05.175Z,24.50
2018-11-29T13:34:02.364Z,24.50
2018-11-29T13:36:59.058Z,24.50
2018-11-29T13:39:56.329Z,24.50
2018-11-29T13:42:53.265Z,24.50
2018-11-29T13:45:50.120Z,24.50
2018-11-29T13:48:46.943Z,24.50
2018-11-29T13:51:44.286Z,24.50
2018-11-29T13:54:41.546Z,24.40
2018-11-29T13:57:38.535Z,24.40
2018-11-29T14:00:36.035Z,24.40
2018-11-29T14:03:36.447Z,24.40
2018-11-29T14:06:33.831Z,24.40
2018-11-29T14:09:31.150Z,24.40
2018-11-29T14:12:28.002Z,24.40
2018-11-29T14:15:34.116Z,24.40
2018-11-29T14:18:31.171Z,24.40
2018-11-29T14:21:29.373Z,24.30
2018-11-29T14:24:28.405Z,24.40
2018-11-29T14:27:25.546Z,24.30
2018-11-29T14:30:31.566Z,24.30
2018-11-29T14:33:28.538Z,24.30
2018-11-29T14:36:26.451Z,24.30
2018-11-29T14:39:23.650Z,24.30
2018-11-29T14:42:21.025Z,24.30
2018-11-29T14:45:19.006Z,24.20
2018-11-29T14:48:15.893Z,24.20
2018-11-29T14:51:13.158Z,24.20
2018-11-29T14:54:10.400Z,24.20
2018-11-29T14:57:08.120Z,24.20
2018-11-29T15:00:06.171Z,24.20
2018-11-29T15:03:04.073Z,24.20
2018-11-29T15:06:01.610Z,24.20
2018-11-29T15:08:58.780Z,24.20
2018-11-29T15:11:55.881Z,24.20
2018-11-29T15:14:53.398Z,24.20
2018-11-29T15:17:51.277Z,24.20
2018-11-29T15:21:01.623Z,24.20
2018-11-29T15:23:59.954Z,24.20
2018-11-29T15:26:57.087Z,24.20
2018-11-29T15:29:54.112Z,24.20
2018-11-29T15:32:51.437Z,24.10
2018-11-29T15:35:49.156Z,24.20
2018-11-29T15:38:46.260Z,24.10
2018-11-29T15:41:43.046Z,24.10
2018-11-29T15:44:43.116Z,24.20
2018-11-29T15:47:40.211Z,24.20
2018-11-29T15:50:39.017Z,24.20
2018-11-29T15:53:36.340Z,24.10
2018-11-29T15:56:33.285Z,24.10
2018-11-29T15:59:30.203Z,24.10
2018-11-29T16:02:27.356Z,24.10
2018-11-29T16:05:25.061Z,24.10
2018-11-29T16:08:22.358Z,24.10
2018-11-29T16:11:19.689Z,24.10
2018-11-29T16:14:16.621Z,24.10
2018-11-29T16:17:14.225Z,24.10
2018-11-29T16:20:20.854Z,24.10
2018-11-29T16:23:17.809Z,24.10
2018-11-29T16:26:15.181Z,24.10
2018-11-29T16:29:11.915Z,24.10
2018-11-29T16:32:12.336Z,24.10
2018-11-29T16:35:09.581Z,24.10
2018-11-29T16:38:06.867Z,24.00
2018-11-29T16:41:04.600Z,24.10
2018-11-29T16:44:02.415Z,24.00
2018-11-29T16:47:00.070Z,24.00
2018-11-29T16:49:57.899Z,24.10
2018-11-29T16:52:55.386Z,24.00
2018-11-29T16:55:52.632Z,24.10
2018-11-29T16:58:49.983Z,24.00
2018-11-29T17:01:47.427Z,24.00
2018-11-29T17:04:44.642Z,24.00
2018-11-29T17:07:41.925Z,24.00
2018-11-29T17:10:43.264Z,24.00
2018-11-29T17:13:37.155Z,24.10
2018-11-29T17:16:34.275Z,24.00
2018-11-29T17:19:31.841Z,24.00
2018-11-29T17:22:28.807Z,24.00
2018-11-29T17:25:28.057Z,24.00
2018-11-29T17:28:25.416Z,24.00
2018-11-29T17:31:22.586Z,24.00
2018-11-29T17:34:19.105Z,24.00
2018-11-29T17:37:15.123Z,24.00
2018-11-29T17:40:17.087Z,24.00
2018-11-29T17:43:13.378Z,24.00
2018-11-29T17:46:09.527Z,24.00
2018-11-29T17:49:06.451Z,24.00
2018-11-29T17:52:03.095Z,24.00
2018-11-29T17:54:59.228Z,24.00
2018-11-29T17:57:56.170Z,23.90
2018-11-29T18:00:53.942Z,24.00
2018-11-29T18:03:50.211Z,24.00
2018-11-29T18:06:53.047Z,24.00
2018-11-29T18:09:49.029Z,23.90
2018-11-29T18:12:49.213Z,24.00
2018-11-29T18:15:45.669Z,23.90
2018-11-29T18:18:41.662Z,24.00
2018-11-29T18:21:38.874Z,23.90
2018-11-29T18:24:34.795Z,23.90
2018-11-29T18:27:31.381Z,23.90
2018-11-29T18:30:27.916Z,23.90
2018-11-29T18:33:24.060Z,23.90
2018-11-29T18:36:20.430Z,23.90
2018-11-29T18:39:17.086Z,23.90
2018-11-29T18:42:13.958Z,23.90
2018-11-29T18:45:11.871Z,23.90
2018-11-29T18:48:07.819Z,23.90
2018-11-29T18:51:03.765Z,23.90
2018-11-29T18:53:59.864Z,23.90
2018-11-29T18:56:58.915Z,23.90
2018-11-29T18:59:55.113Z,23.90
2018-11-29T19:02:56.781Z,23.90
2018-11-29T19:05:48.594Z,23.90
2018-11-29T19:08:44.720Z,23.80
2018-11-29T19:11:41.222Z,23.90
2018-11-29T19:14:37.385Z,23.90
2018-11-29T19:17:33.986Z,23.90
2018-11-29T19:20:30.446Z,23.90
2018-11-29T19:23:30.176Z,23.80
2018-11-29T19:26:26.705Z,23.90
2018-11-29T19:29:22.680Z,23.80
2018-11-29T19:32:19.481Z,23.80
2018-11-29T19:35:16.247Z,23.80
2018-11-29T19:38:12.745Z,23.80
2018-11-29T19:41:08.966Z,23.80
2018-11-29T19:44:07.424Z,23.80
2018-11-29T19:47:03.502Z,23.80
2018-11-29T19:50:00.148Z,23.80
2018-11-29T19:53:00.816Z,23.90
2018-11-29T19:56:07.546Z,23.90
2018-11-29T19:59:03.857Z,23.90
2018-11-29T20:02:00.017Z,24.00
2018-11-29T20:04:59.189Z,23.90
2018-11-29T20:07:55.586Z,23.90
2018-11-29T20:10:52.196Z,23.90
2018-11-29T20:13:48.292Z,24.00
2018-11-29T20:16:44.308Z,24.00
2018-11-29T20:19:44.255Z,24.00
2018-11-29T20:22:40.270Z,24.00
2018-11-29T20:25:39.804Z,24.00
2018-11-29T20:28:36.176Z,24.00
2018-11-29T20:31:32.535Z,24.00
2018-11-29T20:34:28.691Z,24.00
2018-11-29T20:37:24.892Z,23.90
2018-11-29T20:40:41.093Z,24.00
2018-11-29T20:43:41.018Z,24.00
2018-11-29T20:46:34.288Z,24.00
2018-11-29T20:49:30.347Z,24.00
2018-11-29T20:52:26.752Z,24.00
2018-11-29T20:55:26.649Z,24.00
2018-11-29T20:58:22.602Z,24.00
2018-11-29T21:01:19.861Z,24.00
2018-11-29T21:04:16.092Z,24.00
2018-11-29T21:07:12.445Z,24.00
2018-11-29T21:10:09.060Z,24.00
2018-11-29T21:13:11.991Z,24.00
2018-11-29T21:16:08.146Z,24.00
2018-11-29T21:19:04.772Z,24.00
2018-11-29T21:22:01.936Z,23.90
2018-11-29T21:24:58.217Z,24.00
2018-11-29T21:28:01.037Z,24.00
2018-11-29T21:30:57.649Z,24.00
2018-11-29T21:33:53.775Z,24.00
2018-11-29T21:36:49.827Z,24.00
2018-11-29T21:39:45.854Z,24.00
2018-11-29T21:42:50.931Z,24.00
2018-11-29T21:45:39.693Z,24.00
2018-11-29T21:48:35.924Z,24.00
2018-11-29T21:51:33.104Z,24.00
2018-11-29T21:54:30.118Z,24.00
2018-11-29T21:57:25.955Z,24.00
2018-11-29T22:00:23.633Z,24.00
2018-11-29T22:03:20.259Z,24.00
2018-11-29T22:06:16.533Z,24.00
2018-11-29T22:09:14.099Z,24.00
2018-11-29T22:12:10.660Z,24.00
2018-11-29T22:15:06.779Z,24.00
2018-11-29T22:18:21.473Z,23.90
2018-11-29T22:21:18.438Z,24.00
2018-11-29T22:24:14.828Z,23.90
2018-11-29T22:27:10.870Z,23.90
2018-11-29T22:30:07.788Z,24.00
2018-11-29T22:33:04.443Z,24.00
2018-11-29T22:36:00.333Z,24.00
2018-11-29T22:38:56.572Z,24.00
2018-11-29T22:41:53.011Z,24.00
2018-11-29T22:44:52.308Z,23.90
2018-11-29T22:47:48.237Z,24.00
2018-11-29T22:50:44.874Z,24.00
2018-11-29T22:53:41.473Z,24.00
2018-11-29T22:56:40.518Z,24.00
2018-11-29T22:59:37.385Z,24.00
2018-11-29T23:02:33.587Z,24.00
2018-11-29T23:05:31.504Z,24.00
2018-11-29T23:08:28.031Z,23.90
2018-11-29T23:11:24.902Z,24.00
2018-11-29T23:14:21.409Z,24.00
2018-11-29T23:17:17.867Z,24.00
2018-11-29T23:20:20.216Z,23.90
2018-11-29T23:23:16.437Z,23.90
2018-11-29T23:26:12.708Z,23.90
2018-11-29T23:29:09.222Z,24.00
2018-11-29T23:32:06.390Z,24.00
2018-11-29T23:35:02.552Z,23.90
2018-11-29T23:37:58.407Z,23.90
2018-11-29T23:40:54.356Z,23.90
2018-11-29T23:43:54.050Z,23.90
2018-11-29T23:46:50.054Z,23.90
2018-11-29T23:49:46.070Z,23.90
2018-11-29T23:52:45.218Z,23.90
2018-11-29T23:55:41.784Z,23.90
2018-11-29T23:58:38.020Z,23.90
